Terminal Aerodrome Forecast
Issued by NWS

Home | Current Version | Previous Version | Graphics & Text | Print | Product List | Glossary On
Versions: 1 2 3 4 5 6 7 8 9 10 11 12 13 14 15 16
137
FTUS43 KICT 272220 AAB
TAFCNU
TAF AMD
KCNU 272220Z 2722/2818 02011KT P6SM SCT025 SCT050
     FM280600 33009KT P6SM BKN070=

USA.gov is the U.S. government's official web portal to all federal, state and local government web resources and services.